createdAt,value
2017-12-12T00:01:06.762Z,0
2017-12-12T00:02:15.453Z,0
2017-12-12T00:03:24.764Z,0
2017-12-12T00:04:33.725Z,0
2017-12-12T00:05:42.407Z,0
2017-12-12T00:06:51.639Z,0
2017-12-12T00:08:00.349Z,0
2017-12-12T00:09:09.605Z,0
2017-12-12T00:10:18.814Z,0
2017-12-12T00:11:28.269Z,0
2017-12-12T00:12:37.092Z,0
2017-12-12T00:13:46.301Z,0
2017-12-12T00:14:55.259Z,0
2017-12-12T00:16:04.741Z,0
2017-12-12T00:17:13.427Z,0
2017-12-12T00:18:22.659Z,0
2017-12-12T00:19:31.618Z,0
2017-12-12T00:20:40.595Z,0
2017-12-12T00:21:49.862Z,0
2017-12-12T00:22:58.915Z,0
2017-12-12T00:24:07.897Z,0
2017-12-12T00:25:17.389Z,0
2017-12-12T00:26:26.708Z,0
2017-12-12T00:27:35.660Z,0
2017-12-12T00:28:44.884Z,0
2017-12-12T00:29:53.854Z,0
2017-12-12T00:31:02.552Z,0
2017-12-12T00:32:11.493Z,0
2017-12-12T00:33:20.697Z,0
2017-12-12T00:34:29.652Z,0
2017-12-12T00:35:38.611Z,0
2017-12-12T00:36:47.645Z,0
2017-12-12T00:37:56.600Z,0
2017-12-12T00:39:05.561Z,0
2017-12-12T00:40:14.538Z,0
2017-12-12T00:41:23.755Z,0
2017-12-12T00:42:32.436Z,0
2017-12-12T00:43:41.385Z,0
2017-12-12T00:44:50.599Z,0
2017-12-12T00:45:59.545Z,0
2017-12-12T00:47:08.226Z,0
2017-12-12T00:48:17.452Z,0
2017-12-12T00:49:27.206Z,0
2017-12-12T00:50:36.430Z,0
2017-12-12T00:51:45.714Z,0
2017-12-12T00:52:55.239Z,0
2017-12-12T00:54:04.187Z,0
2017-12-12T00:55:13.471Z,0
2017-12-12T00:56:22.450Z,0
2017-12-12T00:57:31.147Z,0
2017-12-12T00:58:40.371Z,0
2017-12-12T00:59:49.601Z,0
2017-12-12T01:00:58.569Z,0
2017-12-12T01:02:07.793Z,0
2017-12-12T01:03:16.995Z,0
2017-12-12T01:04:26.487Z,0
2017-12-12T01:05:35.973Z,0
2017-12-12T01:06:44.662Z,0
2017-12-12T01:07:53.896Z,0
2017-12-12T01:09:02.871Z,0
2017-12-12T01:10:12.086Z,0
2017-12-12T01:11:20.839Z,0
2017-12-12T01:12:29.744Z,0
2017-12-12T01:13:38.687Z,0
2017-12-12T01:14:47.655Z,0
2017-12-12T01:15:56.606Z,0
2017-12-12T01:17:05.829Z,0
2017-12-12T01:18:15.320Z,0
2017-12-12T01:19:24.008Z,0
2017-12-12T01:20:32.955Z,0
2017-12-12T01:21:42.737Z,0
2017-12-12T01:22:51.696Z,0
2017-12-12T01:24:00.641Z,0
2017-12-12T01:25:09.598Z,0
2017-12-12T01:26:19.110Z,0
2017-12-12T01:27:27.899Z,0
2017-12-12T01:28:36.842Z,0
2017-12-12T01:29:46.114Z,0
2017-12-12T01:30:55.861Z,0
2017-12-12T01:32:05.089Z,0
2017-12-12T01:33:14.047Z,0
2017-12-12T01:34:23.261Z,0
2017-12-12T01:35:31.962Z,0
2017-12-12T01:36:40.634Z,0
2017-12-12T01:37:49.619Z,0
2017-12-12T01:38:59.086Z,0
2017-12-12T01:40:08.302Z,0
2017-12-12T01:41:17.562Z,0
2017-12-12T01:42:26.799Z,0
2017-12-12T01:43:36.026Z,0
2017-12-12T01:44:44.991Z,0
2017-12-12T01:45:54.222Z,0
2017-12-12T01:47:03.468Z,0
2017-12-12T01:48:12.947Z,0
2017-12-12T01:49:21.897Z,0
2017-12-12T01:50:31.109Z,0
2017-12-12T01:51:40.327Z,0
2017-12-12T01:52:49.030Z,0
2017-12-12T01:53:58.034Z,0
2017-12-12T01:55:07.277Z,0
2017-12-12T01:56:16.243Z,0
2017-12-12T01:57:25.730Z,0
2017-12-12T01:58:34.940Z,0
2017-12-12T01:59:43.887Z,0
2017-12-12T02:00:52.846Z,0
2017-12-12T02:02:01.804Z,0
2017-12-12T02:03:10.488Z,0
2017-12-12T02:04:19.747Z,0
2017-12-12T02:05:28.446Z,0
2017-12-12T02:06:37.654Z,0
2017-12-12T02:07:46.603Z,0
2017-12-12T02:08:56.109Z,0
2017-12-12T02:10:05.593Z,0
2017-12-12T02:11:14.704Z,0
2017-12-12T02:12:24.176Z,0
2017-12-12T02:13:32.858Z,0
2017-12-12T02:14:41.826Z,0
2017-12-12T02:15:50.780Z,0
2017-12-12T02:17:00.557Z,0
2017-12-12T02:18:09.503Z,0
2017-12-12T02:19:18.708Z,0
2017-12-12T02:20:27.391Z,0
2017-12-12T02:21:36.859Z,0
2017-12-12T02:22:45.808Z,0
2017-12-12T02:23:55.034Z,0
2017-12-12T02:25:04.514Z,0
2017-12-12T02:26:13.725Z,0
2017-12-12T02:27:22.664Z,0
2017-12-12T02:28:31.353Z,0
2017-12-12T02:29:40.562Z,0
2017-12-12T02:30:49.811Z,0
2017-12-12T02:31:59.312Z,0
2017-12-12T02:33:08.534Z,0
2017-12-12T02:34:18.004Z,0
2017-12-12T02:35:26.969Z,0
2017-12-12T02:36:35.928Z,0
2017-12-12T02:37:44.873Z,0
2017-12-12T02:38:54.333Z,0
2017-12-12T02:40:03.538Z,0
2017-12-12T02:41:12.230Z,0
2017-12-12T02:42:21.472Z,0
2017-12-12T02:43:30.674Z,0
2017-12-12T02:44:39.895Z,0
2017-12-12T02:45:49.393Z,0
2017-12-12T02:46:58.631Z,0
2017-12-12T02:48:07.589Z,0
2017-12-12T02:49:17.328Z,0
2017-12-12T02:50:26.002Z,0
2017-12-12T02:51:34.938Z,0
2017-12-12T02:52:43.883Z,0
2017-12-12T02:53:53.095Z,0
2017-12-12T02:55:03.277Z,0
2017-12-12T02:56:12.753Z,0
2017-12-12T02:57:21.707Z,0
2017-12-12T02:58:30.647Z,0
2017-12-12T02:59:39.868Z,0
2017-12-12T03:00:49.076Z,0
2017-12-12T03:01:58.302Z,0
2017-12-12T03:03:07.528Z,0
2017-12-12T03:04:16.215Z,0
2017-12-12T03:05:25.175Z,0
2017-12-12T03:06:34.137Z,0
2017-12-12T03:07:44.148Z,0
2017-12-12T03:08:53.365Z,0
2017-12-12T03:10:02.610Z,0
2017-12-12T03:11:11.826Z,0
2017-12-12T03:12:21.489Z,0
2017-12-12T03:13:30.424Z,0
2017-12-12T03:14:39.633Z,0
2017-12-12T03:15:48.570Z,0
2017-12-12T03:16:57.530Z,0
2017-12-12T03:18:06.778Z,0
2017-12-12T03:19:15.747Z,0
2017-12-12T03:20:24.961Z,0
2017-12-12T03:21:33.912Z,0
2017-12-12T03:22:42.918Z,0
2017-12-12T03:23:51.866Z,0
2017-12-12T03:25:00.565Z,0
2017-12-12T03:26:09.765Z,0
2017-12-12T03:27:19.237Z,0
2017-12-12T03:28:28.189Z,0
2017-12-12T03:29:37.151Z,0
2017-12-12T03:30:46.635Z,0
2017-12-12T03:31:55.863Z,0
2017-12-12T03:33:05.097Z,0
2017-12-12T03:34:14.568Z,0
2017-12-12T03:35:23.785Z,0
2017-12-12T03:36:33.436Z,0
2017-12-12T03:37:43.176Z,0
2017-12-12T03:38:52.403Z,0
2017-12-12T03:40:01.344Z,0
2017-12-12T03:41:10.822Z,0
2017-12-12T03:42:19.764Z,0
2017-12-12T03:43:28.703Z,0
2017-12-12T03:44:38.178Z,0
2017-12-12T03:45:46.872Z,0
2017-12-12T03:46:55.549Z,0
2017-12-12T03:48:04.534Z,0
2017-12-12T03:49:13.482Z,0
2017-12-12T03:50:22.167Z,0
2017-12-12T03:51:31.111Z,0
2017-12-12T03:52:40.072Z,0
2017-12-12T03:53:49.536Z,0
2017-12-12T03:54:58.483Z,0
2017-12-12T03:56:07.427Z,0
2017-12-12T03:57:16.897Z,0
2017-12-12T03:58:26.106Z,0
2017-12-12T03:59:34.814Z,0
2017-12-12T04:00:43.769Z,0
2017-12-12T04:01:53.246Z,0
2017-12-12T04:03:02.457Z,0
2017-12-12T04:04:11.670Z,0
2017-12-12T04:05:21.405Z,0
2017-12-12T04:06:30.367Z,0
2017-12-12T04:07:39.332Z,0
2017-12-12T04:08:48.553Z,0
2017-12-12T04:09:57.541Z,0
2017-12-12T04:11:07.284Z,0
2017-12-12T04:12:16.508Z,0
2017-12-12T04:13:25.510Z,0
2017-12-12T04:14:34.726Z,0
2017-12-12T04:15:43.947Z,0
2017-12-12T04:16:53.166Z,0
2017-12-12T04:18:02.636Z,0
2017-12-12T04:19:11.839Z,0
2017-12-12T04:20:21.049Z,0
2017-12-12T04:21:30.294Z,0
2017-12-12T04:22:39.254Z,0
2017-12-12T04:23:48.464Z,0
2017-12-12T04:24:57.678Z,0
2017-12-12T04:26:06.896Z,0
2017-12-12T04:27:16.120Z,0
2017-12-12T04:28:25.330Z,0
2017-12-12T04:29:34.567Z,0
2017-12-12T04:30:44.054Z,0
2017-12-12T04:31:52.752Z,0
2017-12-12T04:33:01.969Z,0
2017-12-12T04:34:11.256Z,0
2017-12-12T04:35:20.227Z,0
2017-12-12T04:36:29.192Z,0
2017-12-12T04:37:38.669Z,0
2017-12-12T04:38:47.647Z,0
2017-12-12T04:39:56.600Z,0
2017-12-12T04:41:06.613Z,0
2017-12-12T04:42:15.796Z,0
2017-12-12T04:43:25.010Z,0
2017-12-12T04:44:34.481Z,0
2017-12-12T04:45:43.425Z,0
2017-12-12T04:46:52.639Z,0
2017-12-12T04:48:01.570Z,0
2017-12-12T04:49:11.042Z,0
2017-12-12T04:50:20.253Z,0
2017-12-12T04:51:29.729Z,0
2017-12-12T04:52:39.064Z,0
2017-12-12T04:53:48.009Z,0
2017-12-12T04:54:57.755Z,0
2017-12-12T04:56:07.229Z,0
2017-12-12T04:57:16.448Z,0
2017-12-12T04:58:25.435Z,0
2017-12-12T04:59:34.406Z,0
2017-12-12T05:00:43.615Z,0
2017-12-12T05:01:52.925Z,0
2017-12-12T05:03:02.154Z,0
2017-12-12T05:04:11.099Z,0
2017-12-12T05:05:20.298Z,0
2017-12-12T05:06:29.511Z,0
2017-12-12T05:07:38.722Z,0
2017-12-12T05:08:47.652Z,0
2017-12-12T05:09:56.862Z,0
2017-12-12T05:11:06.591Z,0
2017-12-12T05:12:15.546Z,0
2017-12-12T05:13:24.769Z,0
2017-12-12T05:14:33.978Z,0
2017-12-12T05:15:43.193Z,0
2017-12-12T05:16:51.876Z,0
2017-12-12T05:18:01.090Z,0
2017-12-12T05:19:10.061Z,0
2017-12-12T05:20:19.274Z,0
2017-12-12T05:21:28.257Z,0
2017-12-12T05:22:37.763Z,0
2017-12-12T05:23:46.543Z,0
2017-12-12T05:24:55.759Z,0
2017-12-12T05:26:04.700Z,0
2017-12-12T05:27:14.243Z,0
2017-12-12T05:28:23.556Z,0
2017-12-12T05:29:33.314Z,0
2017-12-12T05:30:42.792Z,0
2017-12-12T05:31:52.261Z,0
2017-12-12T05:33:01.224Z,0
2017-12-12T05:34:10.709Z,0
2017-12-12T05:35:20.190Z,0
2017-12-12T05:36:29.475Z,0
2017-12-12T05:37:38.421Z,0
2017-12-12T05:38:47.369Z,0
2017-12-12T05:39:56.054Z,0
2017-12-12T05:41:05.005Z,0
2017-12-12T05:42:14.210Z,0
2017-12-12T05:43:23.103Z,0
2017-12-12T05:44:33.132Z,0
2017-12-12T05:45:42.353Z,0
2017-12-12T05:46:51.826Z,0
2017-12-12T05:48:00.517Z,0
2017-12-12T05:49:09.732Z,0
2017-12-12T05:50:19.214Z,0
2017-12-12T05:51:28.424Z,0
2017-12-12T05:52:37.666Z,0
2017-12-12T05:53:46.899Z,0
2017-12-12T05:54:56.104Z,0
2017-12-12T05:56:05.059Z,0
2017-12-12T05:57:14.028Z,0
2017-12-12T05:58:22.983Z,0
2017-12-12T05:59:32.202Z,0
2017-12-12T06:00:41.670Z,0
2017-12-12T06:01:50.359Z,0
2017-12-12T06:02:59.347Z,0
2017-12-12T06:04:08.812Z,0
2017-12-12T06:05:17.818Z,0
2017-12-12T06:06:26.839Z,0
2017-12-12T06:07:35.808Z,0
2017-12-12T06:08:44.767Z,0
2017-12-12T06:09:53.726Z,0
2017-12-12T06:11:02.980Z,0
2017-12-12T06:12:11.672Z,0
2017-12-12T06:13:20.914Z,0
2017-12-12T06:14:30.169Z,0
2017-12-12T06:15:39.112Z,4
2017-12-12T06:16:48.358Z,4
2017-12-12T06:17:58.293Z,4
2017-12-12T06:19:07.497Z,4
2017-12-12T06:20:16.985Z,4
2017-12-12T06:21:25.927Z,4
2017-12-12T06:22:35.148Z,4
2017-12-12T06:23:44.947Z,4
2017-12-12T06:24:54.182Z,4
2017-12-12T06:28:35.497Z,4
2017-12-12T06:32:16.798Z,4
2017-12-12T06:33:26.312Z,4
2017-12-12T06:34:35.553Z,4
2017-12-12T06:38:17.808Z,4
2017-12-12T06:41:59.642Z,4
2017-12-12T06:43:08.599Z,4
2017-12-12T06:44:17.839Z,4
2017-12-12T06:45:27.091Z,4
2017-12-12T06:46:36.316Z,4
2017-12-12T06:47:45.302Z,4
2017-12-12T06:48:54.237Z,4
2017-12-12T06:50:03.462Z,4
2017-12-12T06:51:12.707Z,4
2017-12-12T06:52:22.173Z,4
2017-12-12T06:53:31.399Z,4
2017-12-12T06:54:40.705Z,4
2017-12-12T06:55:49.701Z,4
2017-12-12T06:56:59.442Z,4
2017-12-12T06:58:08.650Z,4
2017-12-12T06:59:18.130Z,4
2017-12-12T07:00:27.126Z,4
2017-12-12T07:01:36.084Z,4
2017-12-12T07:02:45.289Z,0
2017-12-12T07:03:55.053Z,4
2017-12-12T07:05:04.034Z,4
2017-12-12T07:06:12.988Z,4
2017-12-12T07:07:21.965Z,4
2017-12-12T07:08:30.950Z,4
2017-12-12T07:09:39.911Z,8
2017-12-12T07:10:49.173Z,4
2017-12-12T07:11:58.393Z,4
2017-12-12T07:13:07.881Z,4
2017-12-12T07:14:16.839Z,4
2017-12-12T07:15:25.800Z,8
2017-12-12T07:16:35.017Z,8
2017-12-12T07:17:43.976Z,8
2017-12-12T07:18:52.956Z,12
2017-12-12T07:20:02.173Z,12
2017-12-12T07:21:11.397Z,12
2017-12-12T07:22:20.096Z,12
2017-12-12T07:23:29.084Z,12
2017-12-12T07:24:38.028Z,16
2017-12-12T07:25:46.728Z,16
2017-12-12T07:26:56.515Z,20
2017-12-12T07:28:05.753Z,28
2017-12-12T07:29:15.228Z,32
2017-12-12T07:30:24.188Z,36
2017-12-12T07:31:33.671Z,44
2017-12-12T07:32:42.636Z,52
2017-12-12T07:33:51.860Z,56
2017-12-12T07:35:00.818Z,60
2017-12-12T07:36:09.784Z,68
2017-12-12T07:37:19.299Z,80
2017-12-12T07:38:28.274Z,92
2017-12-12T07:39:37.254Z,104
2017-12-12T07:40:45.951Z,112
2017-12-12T07:41:54.932Z,124
2017-12-12T07:43:03.887Z,136
2017-12-12T07:44:13.122Z,156
2017-12-12T07:45:22.079Z,172
2017-12-12T07:46:31.040Z,192
2017-12-12T07:47:40.549Z,180
2017-12-12T07:48:49.516Z,176
2017-12-12T07:49:58.740Z,176
2017-12-12T07:51:07.451Z,172
2017-12-12T07:52:16.425Z,176
2017-12-12T07:53:25.674Z,188
2017-12-12T07:54:35.168Z,196
2017-12-12T07:55:44.120Z,204
2017-12-12T07:56:52.845Z,212
2017-12-12T07:58:02.070Z,220
2017-12-12T07:59:11.038Z,236
2017-12-12T08:00:20.543Z,244
2017-12-12T08:01:29.507Z,244
2017-12-12T08:02:39.011Z,244
2017-12-12T08:03:48.506Z,236
2017-12-12T08:04:57.475Z,236
2017-12-12T08:06:06.453Z,240
2017-12-12T08:07:15.982Z,244
2017-12-12T08:08:24.941Z,244
2017-12-12T08:09:33.915Z,252
2017-12-12T08:10:43.396Z,248
2017-12-12T08:11:52.363Z,236
2017-12-12T08:13:01.634Z,268
2017-12-12T08:14:10.893Z,304
2017-12-12T08:15:20.466Z,332
2017-12-12T08:16:29.411Z,280
2017-12-12T08:17:38.361Z,276
2017-12-12T08:18:47.334Z,292
2017-12-12T08:19:56.053Z,292
2017-12-12T08:21:05.281Z,256
2017-12-12T08:22:14.247Z,260
2017-12-12T08:23:23.229Z,296
2017-12-12T08:24:31.919Z,272
2017-12-12T08:25:41.143Z,276
2017-12-12T08:26:50.418Z,308
2017-12-12T08:27:59.739Z,248
2017-12-12T08:29:08.989Z,252
2017-12-12T08:30:18.193Z,296
2017-12-12T08:31:27.459Z,340
2017-12-12T08:32:36.471Z,332
2017-12-12T08:33:45.758Z,340
2017-12-12T08:34:54.736Z,328
2017-12-12T08:36:04.262Z,296
2017-12-12T08:37:13.802Z,324
2017-12-12T08:38:22.758Z,264
2017-12-12T08:39:31.752Z,376
2017-12-12T08:40:41.508Z,396
2017-12-12T08:41:50.508Z,512
2017-12-12T08:42:59.468Z,500
2017-12-12T08:44:08.748Z,460
2017-12-12T08:45:18.503Z,504
2017-12-12T08:46:27.484Z,576
2017-12-12T08:47:36.454Z,392
2017-12-12T08:48:45.699Z,436
2017-12-12T08:49:54.922Z,312
2017-12-12T08:51:03.687Z,312
2017-12-12T08:52:12.398Z,412
2017-12-12T08:53:21.961Z,472
2017-12-12T08:54:30.944Z,288
2017-12-12T08:55:40.174Z,328
2017-12-12T08:56:49.459Z,412
2017-12-12T08:57:58.421Z,268
2017-12-12T08:59:07.387Z,316
2017-12-12T09:00:16.126Z,348
2017-12-12T09:01:25.627Z,360
2017-12-12T09:02:34.586Z,308
2017-12-12T09:03:44.140Z,308
2017-12-12T09:04:53.368Z,372
2017-12-12T09:06:02.622Z,312
2017-12-12T09:07:12.115Z,328
2017-12-12T09:08:21.363Z,284
2017-12-12T09:09:30.317Z,344
2017-12-12T09:10:39.273Z,316
2017-12-12T09:11:48.785Z,380
2017-12-12T09:12:58.012Z,432
2017-12-12T09:14:07.022Z,472
2017-12-12T09:15:16.758Z,496
2017-12-12T09:16:25.717Z,564
2017-12-12T09:17:34.430Z,724
2017-12-12T09:18:43.404Z,648
2017-12-12T09:19:52.876Z,672
2017-12-12T09:21:01.900Z,636
2017-12-12T09:22:10.961Z,772
2017-12-12T09:23:20.184Z,788
2017-12-12T09:24:29.143Z,588
2017-12-12T09:25:38.637Z,476
2017-12-12T09:26:47.626Z,488
2017-12-12T09:27:56.854Z,604
2017-12-12T09:29:06.351Z,548
2017-12-12T09:30:15.825Z,768
2017-12-12T09:31:24.797Z,548
2017-12-12T09:32:34.285Z,548
2017-12-12T09:33:43.556Z,648
2017-12-12T09:34:52.540Z,1068
2017-12-12T09:36:01.781Z,848
2017-12-12T09:37:10.759Z,796
2017-12-12T09:38:19.452Z,832
2017-12-12T09:39:28.940Z,556
2017-12-12T09:40:38.166Z,824
2017-12-12T09:41:47.668Z,716
2017-12-12T09:42:56.636Z,484
2017-12-12T09:44:05.604Z,364
2017-12-12T09:45:14.828Z,412
2017-12-12T09:46:24.053Z,336
2017-12-12T09:47:32.780Z,352
2017-12-12T09:48:41.739Z,396
2017-12-12T09:49:51.027Z,436
2017-12-12T09:50:59.992Z,504
2017-12-12T09:52:09.234Z,468
2017-12-12T09:53:18.725Z,548
2017-12-12T09:54:27.431Z,1020
2017-12-12T09:55:36.912Z,636
2017-12-12T09:56:46.174Z,516
2017-12-12T09:57:55.154Z,620
2017-12-12T09:59:04.431Z,792
2017-12-12T10:00:13.904Z,908
2017-12-12T10:01:22.869Z,1008
2017-12-12T10:02:31.843Z,944
2017-12-12T10:03:40.852Z,864
2017-12-12T10:04:50.074Z,812
2017-12-12T10:05:58.776Z,696
2017-12-12T10:07:07.998Z,852
2017-12-12T10:08:17.233Z,832
2017-12-12T10:09:26.211Z,960
2017-12-12T10:10:35.691Z,920
2017-12-12T10:11:44.911Z,1004
2017-12-12T10:12:54.131Z,1016
2017-12-12T10:14:03.084Z,1128
2017-12-12T10:15:12.823Z,1136
2017-12-12T10:16:21.784Z,1068
2017-12-12T10:17:31.301Z,988
2017-12-12T10:18:40.518Z,1072
2017-12-12T10:19:49.745Z,1052
2017-12-12T10:20:58.711Z,836
2017-12-12T10:22:07.675Z,760
2017-12-12T10:23:17.163Z,964
2017-12-12T10:24:26.133Z,940
2017-12-12T10:25:35.618Z,984
2017-12-12T10:26:44.843Z,928
2017-12-12T10:27:54.333Z,864
2017-12-12T10:29:04.101Z,884
2017-12-12T10:30:13.053Z,1080
2017-12-12T10:31:22.007Z,1168
2017-12-12T10:32:31.005Z,1508
2017-12-12T10:33:40.333Z,1800
2017-12-12T10:34:49.499Z,1808
2017-12-12T10:35:58.209Z,2020
2017-12-12T10:37:07.431Z,1868
2017-12-12T10:38:16.450Z,1668
2017-12-12T10:39:25.169Z,1556
2017-12-12T10:40:34.180Z,1316
2017-12-12T10:41:43.160Z,1180
2017-12-12T10:42:52.402Z,1108
2017-12-12T10:44:01.623Z,1040
2017-12-12T10:45:10.834Z,940
2017-12-12T10:46:20.053Z,844
2017-12-12T10:47:29.551Z,848
2017-12-12T10:48:38.544Z,820
2017-12-12T10:49:47.855Z,756
2017-12-12T10:50:57.112Z,672
2017-12-12T10:52:06.405Z,620
2017-12-12T10:53:15.101Z,600
2017-12-12T10:54:24.321Z,516
2017-12-12T10:55:33.307Z,568
2017-12-12T10:56:42.003Z,492
2017-12-12T10:57:51.231Z,440
2017-12-12T10:59:00.204Z,444
2017-12-12T11:00:09.706Z,424
2017-12-12T11:01:19.204Z,376
2017-12-12T11:02:28.441Z,384
2017-12-12T11:03:37.677Z,388
2017-12-12T11:04:47.418Z,500
2017-12-12T11:05:56.107Z,616
2017-12-12T11:07:04.815Z,544
2017-12-12T11:08:13.801Z,536
2017-12-12T11:09:22.767Z,580
2017-12-12T11:10:31.480Z,676
2017-12-12T11:11:40.695Z,648
2017-12-12T11:12:50.186Z,636
2017-12-12T11:13:59.468Z,600
2017-12-12T11:15:09.024Z,692
2017-12-12T11:16:18.243Z,656
2017-12-12T11:17:27.202Z,660
2017-12-12T11:18:36.812Z,672
2017-12-12T11:19:46.443Z,708
2017-12-12T11:20:55.942Z,836
2017-12-12T11:22:05.185Z,1000
2017-12-12T11:23:14.418Z,1208
2017-12-12T11:24:23.399Z,1152
2017-12-12T11:25:32.107Z,840
2017-12-12T11:26:41.640Z,736
2017-12-12T11:27:51.266Z,832
2017-12-12T11:29:00.273Z,896
2017-12-12T11:30:09.262Z,880
2017-12-12T11:31:19.013Z,888
2017-12-12T11:32:28.243Z,856
2017-12-12T11:33:37.719Z,920
2017-12-12T11:34:47.250Z,980
2017-12-12T11:35:56.499Z,1012
2017-12-12T11:37:06.260Z,1068
2017-12-12T11:38:15.219Z,1076
2017-12-12T11:39:23.930Z,1064
2017-12-12T11:40:32.634Z,1144
2017-12-12T11:41:42.383Z,1156
2017-12-12T11:42:51.376Z,1096
2017-12-12T11:44:00.624Z,1152
2017-12-12T11:45:09.847Z,1140
2017-12-12T11:46:19.082Z,1024
2017-12-12T11:47:28.580Z,880
2017-12-12T11:48:38.324Z,828
2017-12-12T11:49:47.572Z,852
2017-12-12T11:50:57.067Z,860
2017-12-12T11:52:06.118Z,928
2017-12-12T11:53:15.123Z,1004
2017-12-12T11:54:23.864Z,996
2017-12-12T11:55:32.842Z,1028
2017-12-12T11:56:42.338Z,1060
2017-12-12T11:57:51.567Z,1020
2017-12-12T11:59:00.776Z,984
2017-12-12T12:00:09.988Z,1024
2017-12-12T12:01:19.202Z,1044
2017-12-12T12:02:28.224Z,992
2017-12-12T12:03:37.711Z,896
2017-12-12T12:04:47.206Z,836
2017-12-12T12:05:56.959Z,848
2017-12-12T12:07:06.437Z,892
2017-12-12T12:08:15.460Z,1016
2017-12-12T12:09:24.420Z,956
2017-12-12T12:10:33.438Z,1072
2017-12-12T12:11:42.945Z,1192
2017-12-12T12:12:51.902Z,1120
2017-12-12T12:14:00.961Z,1076
2017-12-12T12:15:09.948Z,1132
2017-12-12T12:16:18.958Z,1264
2017-12-12T12:17:27.667Z,1188
2017-12-12T12:18:36.900Z,992
2017-12-12T12:19:45.943Z,1028
2017-12-12T12:20:54.932Z,1064
2017-12-12T12:22:04.832Z,784
2017-12-12T12:23:14.047Z,752
2017-12-12T12:24:23.262Z,644
2017-12-12T12:25:32.219Z,660
2017-12-12T12:26:41.189Z,648
2017-12-12T12:27:50.409Z,720
2017-12-12T12:28:59.662Z,748
2017-12-12T12:30:08.840Z,880
2017-12-12T12:31:17.822Z,964
2017-12-12T12:32:26.769Z,860
2017-12-12T12:33:35.726Z,748
2017-12-12T12:34:44.686Z,640
2017-12-12T12:35:53.660Z,672
2017-12-12T12:37:02.671Z,628
2017-12-12T12:38:11.628Z,512
2017-12-12T12:39:21.115Z,564
2017-12-12T12:40:30.597Z,532
2017-12-12T12:41:39.557Z,492
2017-12-12T12:42:48.265Z,432
2017-12-12T12:43:57.522Z,416
2017-12-12T12:45:06.735Z,432
2017-12-12T12:46:15.702Z,452
2017-12-12T12:47:24.918Z,492
2017-12-12T12:48:33.874Z,568
2017-12-12T12:49:43.414Z,504
2017-12-12T12:50:52.894Z,504
2017-12-12T12:52:01.581Z,512
2017-12-12T12:53:10.642Z,556
2017-12-12T12:54:20.399Z,508
2017-12-12T12:55:30.156Z,480
2017-12-12T12:56:39.113Z,464
2017-12-12T12:57:48.871Z,404
2017-12-12T12:58:58.097Z,376
2017-12-12T13:00:07.355Z,340
2017-12-12T13:01:16.308Z,300
2017-12-12T13:02:25.806Z,244
2017-12-12T13:03:35.033Z,204
2017-12-12T13:04:44.287Z,236
2017-12-12T13:05:53.765Z,184
2017-12-12T13:07:02.980Z,192
2017-12-12T13:08:12.214Z,260
2017-12-12T13:09:21.952Z,328
2017-12-12T13:10:30.922Z,332
2017-12-12T13:11:40.147Z,384
2017-12-12T13:12:48.864Z,420
2017-12-12T13:13:57.822Z,416
2017-12-12T13:15:07.311Z,384
2017-12-12T13:16:16.536Z,428
2017-12-12T13:17:25.504Z,480
2017-12-12T13:18:34.212Z,492
2017-12-12T13:19:43.518Z,516
2017-12-12T13:20:52.483Z,528
2017-12-12T13:22:01.440Z,560
2017-12-12T13:23:10.423Z,632
2017-12-12T13:24:19.889Z,640
2017-12-12T13:25:28.854Z,608
2017-12-12T13:26:38.346Z,592
2017-12-12T13:27:47.835Z,572
2017-12-12T13:28:57.044Z,560
2017-12-12T13:30:06.004Z,584
2017-12-12T13:31:14.965Z,536
2017-12-12T13:32:24.296Z,472
2017-12-12T13:33:33.814Z,464
2017-12-12T13:34:43.058Z,384
2017-12-12T13:35:52.837Z,396
2017-12-12T13:37:01.792Z,508
2017-12-12T13:38:11.018Z,548
2017-12-12T13:39:20.293Z,556
2017-12-12T13:40:29.388Z,536
2017-12-12T13:41:38.612Z,488
2017-12-12T13:42:47.862Z,444
2017-12-12T13:43:56.839Z,372
2017-12-12T13:45:06.057Z,352
2017-12-12T13:46:15.272Z,384
2017-12-12T13:47:24.518Z,412
2017-12-12T13:48:33.745Z,424
2017-12-12T13:49:42.469Z,368
2017-12-12T13:50:51.172Z,316
2017-12-12T13:52:00.124Z,304
2017-12-12T13:53:09.088Z,356
2017-12-12T13:54:18.372Z,408
2017-12-12T13:55:27.078Z,408
2017-12-12T13:56:36.305Z,404
2017-12-12T13:57:45.794Z,392
2017-12-12T13:58:55.033Z,384
2017-12-12T14:00:04.243Z,348
2017-12-12T14:01:13.199Z,312
2017-12-12T14:02:22.674Z,312
2017-12-12T14:03:32.163Z,284
2017-12-12T14:04:41.128Z,268
2017-12-12T14:05:50.346Z,288
2017-12-12T14:06:59.055Z,280
2017-12-12T14:08:08.550Z,292
2017-12-12T14:09:17.277Z,292
2017-12-12T14:10:26.222Z,280
2017-12-12T14:11:35.437Z,256
2017-12-12T14:12:44.399Z,280
2017-12-12T14:13:53.125Z,260
2017-12-12T14:15:01.817Z,260
2017-12-12T14:16:11.033Z,236
2017-12-12T14:17:20.661Z,264
2017-12-12T14:18:29.636Z,268
2017-12-12T14:19:38.862Z,268
2017-12-12T14:20:48.345Z,260
2017-12-12T14:21:57.371Z,244
2017-12-12T14:23:06.851Z,204
2017-12-12T14:24:16.364Z,160
2017-12-12T14:25:25.845Z,140
2017-12-12T14:26:34.789Z,196
2017-12-12T14:27:43.747Z,192
2017-12-12T14:28:52.453Z,216
2017-12-12T14:30:01.686Z,196
2017-12-12T14:31:11.192Z,204
2017-12-12T14:32:20.146Z,248
2017-12-12T14:33:29.105Z,256
2017-12-12T14:34:38.055Z,220
2017-12-12T14:35:47.529Z,216
2017-12-12T14:36:56.496Z,188
2017-12-12T14:38:05.729Z,180
2017-12-12T14:39:14.971Z,148
2017-12-12T14:40:24.196Z,148
2017-12-12T14:41:32.921Z,148
2017-12-12T14:42:41.894Z,148
2017-12-12T14:43:51.395Z,148
2017-12-12T14:45:00.099Z,152
2017-12-12T14:46:09.317Z,152
2017-12-12T14:47:18.602Z,160
2017-12-12T14:48:28.106Z,156
2017-12-12T14:49:37.677Z,156
2017-12-12T14:50:47.452Z,144
2017-12-12T14:51:56.667Z,136
2017-12-12T14:53:05.891Z,124
2017-12-12T14:54:14.844Z,100
2017-12-12T14:55:23.812Z,84
2017-12-12T14:56:32.817Z,80
2017-12-12T14:57:41.825Z,72
2017-12-12T14:58:50.777Z,80
2017-12-12T14:59:59.796Z,68
2017-12-12T15:01:08.773Z,64
2017-12-12T15:02:17.993Z,68
2017-12-12T15:03:26.955Z,60
2017-12-12T15:04:35.896Z,68
2017-12-12T15:05:45.416Z,64
2017-12-12T15:06:54.383Z,56
2017-12-12T15:08:03.888Z,48
2017-12-12T15:09:13.152Z,52
2017-12-12T15:10:22.889Z,48
2017-12-12T15:11:32.104Z,44
2017-12-12T15:12:41.328Z,32
2017-12-12T15:13:50.047Z,36
2017-12-12T15:14:59.273Z,32
2017-12-12T15:16:08.811Z,28
2017-12-12T15:17:18.067Z,24
2017-12-12T15:18:27.765Z,28
2017-12-12T15:19:36.988Z,20
2017-12-12T15:20:46.003Z,24
2017-12-12T15:21:55.490Z,16
2017-12-12T15:23:04.708Z,16
2017-12-12T15:24:13.484Z,12
2017-12-12T15:25:22.427Z,12
2017-12-12T15:26:31.698Z,12
2017-12-12T15:27:41.169Z,12
2017-12-12T15:28:50.386Z,8
2017-12-12T15:29:59.334Z,8
2017-12-12T15:31:08.292Z,8
2017-12-12T15:32:17.531Z,4
2017-12-12T15:33:27.012Z,4
2017-12-12T15:34:35.697Z,4
2017-12-12T15:35:44.915Z,4
2017-12-12T15:36:54.387Z,4
2017-12-12T15:38:03.076Z,4
2017-12-12T15:39:12.587Z,4
2017-12-12T15:40:21.276Z,4
2017-12-12T15:41:30.233Z,4
2017-12-12T15:42:39.205Z,0
2017-12-12T15:43:47.916Z,4
2017-12-12T15:44:56.877Z,4
2017-12-12T15:46:06.353Z,0
2017-12-12T15:47:15.307Z,0
2017-12-12T15:48:24.533Z,0
2017-12-12T15:49:33.494Z,0
2017-12-12T15:50:42.178Z,0
2017-12-12T15:51:51.947Z,0
2017-12-12T15:53:00.913Z,0
2017-12-12T15:54:10.440Z,0
2017-12-12T15:55:19.196Z,0
2017-12-12T15:56:28.726Z,0
2017-12-12T15:57:37.612Z,0
2017-12-12T15:58:46.819Z,0
2017-12-12T15:59:55.778Z,0
2017-12-12T16:01:04.997Z,0
2017-12-12T16:02:14.215Z,0
2017-12-12T16:03:23.451Z,0
2017-12-12T16:04:32.420Z,0
2017-12-12T16:05:41.375Z,0
2017-12-12T16:06:50.073Z,0
2017-12-12T16:07:59.042Z,0
2017-12-12T16:09:08.548Z,0
2017-12-12T16:10:17.509Z,0
2017-12-12T16:11:26.458Z,0
2017-12-12T16:12:35.951Z,0
2017-12-12T16:13:44.948Z,0
2017-12-12T16:14:54.175Z,0
2017-12-12T16:16:03.514Z,0
2017-12-12T16:17:13.047Z,0
2017-12-12T16:18:22.030Z,0
2017-12-12T16:19:31.034Z,0
2017-12-12T16:20:40.054Z,0
2017-12-12T16:21:49.584Z,0
2017-12-12T16:22:58.541Z,0
2017-12-12T16:24:07.786Z,0
2017-12-12T16:25:16.497Z,0
2017-12-12T16:26:25.982Z,0
2017-12-12T16:27:35.493Z,0
2017-12-12T16:28:44.458Z,0
2017-12-12T16:29:53.490Z,0
2017-12-12T16:31:02.704Z,0
2017-12-12T16:32:12.174Z,0
2017-12-12T16:33:21.132Z,0
2017-12-12T16:34:30.535Z,0
2017-12-12T16:35:40.033Z,0
2017-12-12T16:36:49.008Z,0